»·PEaware :: EAW800 KONT-KPHX

EAW800 :: KONT-KPHX

FLIGHT INFORMATION

Flight Status: Arrived
Operator: Unknown
More flights by this operator :: More flights under this callsign
Pilot: Dave P. (45)
Aircraft: BOEING 737-800
(B738)
More flights by this aircraft type
Origin: KONT Ontario Intl
United States
Destination: KPHX Phoenix Sky Harbor Intl
United States
More flights between these airports :: More routes between these airports
Route: +RAJEE3 MTBAL CNERY BLH HYDRR1
File this flight plan on PilotEdge
Remarks: EAW = Eagle Airways, callsign is "EAGLE"
Altitude:
(Current/Filed)
33,000ft
Speed:
(Current/Filed)
453kts
Departed: 14-Apr-18 02:04 PM
Arrived: 14-Apr-18 03:00 PM
Distance/Time
Traveled:
281nm/0:56
Distance/Time
To Go:
Arrived

Flight Plot

Page will automatically refresh every two minutes.

Flight plan parsing failed; only flown route is shown


Map Options




Map Legend


Flown Route
Filed Route
Departure Airport
Arrival Airport
Navaid (VOR, NDB)
Fix

Horizontal Profiles

Position Reports

Time Latitude Longitude Heading Altitude Ground
Speed
14-Apr-18 13:47 34.059783 -117.595778 0 952ft 0kts
14-Apr-18 13:48 34.059783 -117.595778 0 952ft 0kts
14-Apr-18 13:49 34.059783 -117.595778 0 952ft 0kts
14-Apr-18 13:50 34.059783 -117.595778 0 952ft 0kts
14-Apr-18 13:51 34.059783 -117.595778 0 952ft 0kts
14-Apr-18 13:52 34.059783 -117.595778 0 952ft 0kts
14-Apr-18 13:53 34.059783 -117.595778 0 952ft 0kts
14-Apr-18 13:54 34.059603 -117.595778 0 952ft 2kts
14-Apr-18 13:55 34.059351 -117.595778 359 952ft 0kts
14-Apr-18 13:56 34.059351 -117.595778 359 952ft 0kts
14-Apr-18 13:57 34.059352 -117.595778 359 952ft 0kts
14-Apr-18 13:58 34.058898 -117.594242 89 952ft 11kts
14-Apr-18 13:59 34.058879 -117.588982 90 952ft 17kts
14-Apr-18 14:00 34.058853 -117.583371 90 952ft 10kts
14-Apr-18 14:01 34.057789 -117.582674 180 952ft 0kts
14-Apr-18 14:02 34.056759 -117.584783 270 952ft 38kts
14-Apr-18 14:03 34.055774 -117.627810 248 2130ft 164kts
14-Apr-18 14:04 34.009851 -117.622901 140 3935ft 241kts
14-Apr-18 14:05 33.952784 -117.564988 139 6587ft 282kts
14-Apr-18 14:06 33.890602 -117.505736 145 7015ft 284kts
14-Apr-18 14:07 33.825391 -117.451961 145 7011ft 284kts
14-Apr-18 14:08 33.759687 -117.396968 145 9387ft 293kts
14-Apr-18 14:09 33.706550 -117.317971 101 11442ft 348kts
14-Apr-18 14:10 33.694460 -117.195003 93 13631ft 386kts
14-Apr-18 14:11 33.683107 -117.065662 94 15144ft 394kts
14-Apr-18 14:12 33.670156 -116.931272 94 17822ft 414kts
14-Apr-18 14:13 33.656279 -116.790794 94 20180ft 434kts
14-Apr-18 14:14 33.641896 -116.643515 94 22299ft 452kts
14-Apr-18 14:15 33.626689 -116.491176 94 24113ft 468kts
14-Apr-18 14:16 33.610873 -116.334202 93 25879ft 480kts
14-Apr-18 14:17 33.606748 -116.172117 89 27415ft 491kts
14-Apr-18 14:18 33.603356 -116.006999 86 28807ft 500kts
14-Apr-18 14:19 33.608859 -115.868063 84 30214ft 500kts
14-Apr-18 14:20 33.614204 -115.701789 84 31979ft 496kts
14-Apr-18 14:21 33.617762 -115.536692 87 33169ft 500kts
14-Apr-18 14:22 33.612739 -115.370900 88 33187ft 495kts
14-Apr-18 14:23 33.607356 -115.177874 87 33191ft 495kts
14-Apr-18 14:24 33.603429 -115.012932 87 33196ft 495kts
14-Apr-18 14:25 33.599470 -114.875389 87 33198ft 496kts
14-Apr-18 14:26 33.587251 -114.710356 98 31915ft 499kts
14-Apr-18 14:27 33.555031 -114.549687 100 29511ft 489kts
14-Apr-18 14:28 33.524408 -114.393197 99 27385ft 474kts
14-Apr-18 14:29 33.494557 -114.241567 100 25297ft 462kts
14-Apr-18 14:30 33.465084 -114.093656 100 23339ft 449kts
14-Apr-18 14:31 33.437703 -113.957107 99 23190ft 393kts
14-Apr-18 14:32 33.413733 -113.838065 98 23182ft 344kts
14-Apr-18 14:33 33.392304 -113.730557 98 22213ft 341kts
14-Apr-18 14:34 33.368166 -113.611843 99 19497ft 390kts
14-Apr-18 14:35 33.341911 -113.483576 99 18500ft 395kts
14-Apr-18 14:36 33.319233 -113.356522 97 17496ft 385kts
14-Apr-18 14:37 33.297777 -113.232533 97 16497ft 377kts
14-Apr-18 14:38 33.280208 -113.110804 95 15496ft 365kts
14-Apr-18 14:39 33.275748 -112.994853 82 14884ft 332kts
14-Apr-18 14:40 33.279012 -112.882933 82 14608ft 337kts
14-Apr-18 14:41 33.283951 -112.775650 77 13783ft 307kts
14-Apr-18 14:42 33.294209 -112.675596 78 11997ft 297kts
14-Apr-18 14:43 33.303387 -112.579398 79 10999ft 287kts
14-Apr-18 14:44 33.312187 -112.483664 79 10983ft 291kts
14-Apr-18 14:45 33.320958 -112.387218 79 10969ft 291kts
14-Apr-18 14:46 33.329826 -112.291151 79 10453ft 289kts
14-Apr-18 14:47 33.338319 -112.197059 80 9747ft 273kts
14-Apr-18 14:48 33.346005 -112.111029 80 9121ft 248kts
14-Apr-18 14:49 33.347268 -112.032289 88 8206ft 223kts
14-Apr-18 14:50 33.346020 -111.960476 87 6923ft 219kts
14-Apr-18 14:51 33.345599 -111.888929 87 5860ft 213kts
14-Apr-18 14:52 33.345545 -111.818530 87 4776ft 208kts
14-Apr-18 14:53 33.374573 -111.776524 11 3830ft 178kts
14-Apr-18 14:54 33.421895 -111.785929 309 3478ft 189kts
14-Apr-18 14:55 33.428929 -111.848669 271 3512ft 196kts
14-Apr-18 14:56 33.428794 -111.913209 272 2564ft 181kts
14-Apr-18 14:57 33.428825 -111.968243 272 1689ft 156kts
14-Apr-18 14:58 33.428837 -112.017556 269 1143ft 91kts
14-Apr-18 14:59 33.429660 -112.021701 10 1143ft 0kts
14-Apr-18 15:00 33.429944 -112.018494 89 1143ft 9kts
14-Apr-18 15:01 33.431325 -112.015770 358 1143ft 13kts
14-Apr-18 15:02 33.434015 -112.015429 8 1143ft 9kts
14-Apr-18 15:03 33.434308 -112.014455 93 1143ft 0kts
14-Apr-18 15:04 33.434308 -112.014455 93 1143ft 0kts
14-Apr-18 15:05 33.434308 -112.014455 93 1143ft 0kts
14-Apr-18 15:06 33.434308 -112.014455 93 1143ft 0kts
14-Apr-18 15:07 33.434308 -112.014455 93 1143ft 0kts

Navigation Log

Ident Type
Flight plan parsing failed, navigation log unavailable